Airfield :
LOGIN :

Register | Disclaimer

   EN    FR    IT 

 










Legend :    VFR   Marginal VFR   IFR   Intensive IFR   Very Intensive IFR
Visi :
Ceiling :
>= 8 km
>= 3000ft
5 to 8 km
1000 to 3000 ft
1500m to 5 km
500 to 1000 ft
800 to 1500m
200 to 500 ft
< 800m
< 200 ft
Symbols :   Thunderstorms  Fog  Heavy snow  Heavy precipitations  Wind > 20 kt
SIGMETs :     Misc.  Thunderstorms  Icing  Turbulence  Mountain Waves  Volcanic Ashes







- Airport Elevation : 776 ft
- IATA code : RMS


ETAR - Ramstein Air Base

EXPIRED METARs :
  • 210256Z AUTO 00000KT 9999 BKN060 16/16 A3013 RMK AO2 SLP197 T01580158 57007 $

TAF TAF ETAR
Valid from the 21 at 02:00 until the 22 at 08:00 UTC


210208Z 2102/2208 VRB06KT 9999 BKN060 QNH3009INS
BECMG 2108/2109 05009KT 9999 SCT025 BKN060 QNH3004INS
BECMG 2115/2116 VRB06KT 9999 SCT030 QNH3003INS
BECMG 2120/2121 VRB06KT 9999 SKC QNH3002INS TX27/2113Z TN14/2102Z
No reported NOTAMs for that airfield.



MET'MAP, your aeronautical weather chart ! - Copyright ORBIFLY December 2007 - Disclaimer

ORBIFLY MET'MAP TEAM :

Programming & Development : Alexandra Zaïnal
Concept & Development : Baudouin d'Aumeries
Co-Development & Prog : Marc-Olivier Méhu
Technical & hardware support : Manuel Goepfert

Contact : metmap@orbifly.com




SOURCES & CREDITS :

   NOAA